sensor_id;sensor_type;location;lat;lon;timestamp;pressure;altitude;pressure_sealevel;temperature;humidity
74103;BME280;62853;46.166;3.640;2022-12-11T00:01:41;101050.91;;;-0.11;100.00
74103;BME280;62853;46.166;3.640;2022-12-11T00:04:06;101049.19;;;-0.12;100.00
74103;BME280;62853;46.166;3.640;2022-12-11T00:06:32;101047.47;;;-0.13;100.00
74103;BME280;62853;46.166;3.640;2022-12-11T00:08:57;101037.16;;;-0.16;100.00
74103;BME280;62853;46.166;3.640;2022-12-11T00:11:22;101047.47;;;-0.13;100.00
74103;BME280;62853;46.166;3.640;2022-12-11T00:13:47;101042.25;;;-0.10;100.00
74103;BME280;62853;46.166;3.640;2022-12-11T00:16:13;101046.56;;;-0.08;100.00
74103;BME280;62853;46.166;3.640;2022-12-11T00:18:38;101043.13;;;-0.10;100.00
74103;BME280;62853;46.166;3.640;2022-12-11T00:21:04;101034.47;;;-0.09;100.00
74103;BME280;62853;46.166;3.640;2022-12-11T00:23:30;101039.66;;;-0.09;100.00
74103;BME280;62853;46.166;3.640;2022-12-11T00:25:55;101040.53;;;-0.07;100.00
74103;BME280;62853;46.166;3.640;2022-12-11T00:28:21;101037.97;;;-0.10;100.00
74103;BME280;62853;46.166;3.640;2022-12-11T00:30:46;101037.06;;;-0.09;100.00
74103;BME280;62853;46.166;3.640;2022-12-11T00:33:12;101037.97;;;-0.10;100.00
74103;BME280;62853;46.166;3.640;2022-12-11T00:35:38;101037.94;;;-0.07;100.00
74103;BME280;62853;46.166;3.640;2022-12-11T00:38:04;101042.22;;;-0.04;100.00
74103;BME280;62853;46.166;3.640;2022-12-11T00:40:32;101040.47;;;-0.02;100.00
74103;BME280;62853;46.166;3.640;2022-12-11T00:42:57;101045.63;;;-0.01;100.00
74103;BME280;62853;46.166;3.640;2022-12-11T00:45:22;101026.66;;;-0.01;100.00
74103;BME280;62853;46.166;3.640;2022-12-11T00:47:47;101036.19;;;-0.03;100.00
74103;BME280;62853;46.166;3.640;2022-12-11T00:50:13;101037.03;;;-0.03;100.00
74103;BME280;62853;46.166;3.640;2022-12-11T00:52:38;101042.22;;;-0.07;100.00
74103;BME280;62853;46.166;3.640;2022-12-11T00:55:04;101046.59;;;-0.14;100.00
74103;BME280;62853;46.166;3.640;2022-12-11T00:57:30;101033.72;;;-0.20;100.00
74103;BME280;62853;46.166;3.640;2022-12-11T00:59:55;101033.75;;;-0.23;100.00
74103;BME280;62853;46.166;3.640;2022-12-11T01:02:20;101033.75;;;-0.23;100.00
74103;BME280;62853;46.166;3.640;2022-12-11T01:04:45;101032.84;;;-0.24;100.00
74103;BME280;62853;46.166;3.640;2022-12-11T01:07:11;101032.84;;;-0.24;100.00
74103;BME280;62853;46.166;3.640;2022-12-11T01:09:36;101028.56;;;-0.23;100.00
74103;BME280;62853;46.166;3.640;2022-12-11T01:12:20;101027.66;;;-0.22;100.00
74103;BME280;62853;46.166;3.640;2022-12-11T01:14:45;101036.31;;;-0.20;100.00
74103;BME280;62853;46.166;3.640;2022-12-11T01:17:10;101030.22;;;-0.17;100.00
74103;BME280;62853;46.166;3.640;2022-12-11T01:19:36;101035.41;;;-0.14;100.00
74103;BME280;62853;46.166;3.640;2022-12-11T01:22:01;101031.06;;;-0.14;100.00
74103;BME280;62853;46.166;3.640;2022-12-11T01:24:26;101032.81;;;-0.14;100.00
74103;BME280;62853;46.166;3.640;2022-12-11T01:26:52;101031.06;;;-0.14;100.00
74103;BME280;62853;46.166;3.640;2022-12-11T01:29:17;101029.38;;;-0.15;100.00
74103;BME280;62853;46.166;3.640;2022-12-11T01:31:42;101028.47;;;-0.12;100.00
74103;BME280;62853;46.166;3.640;2022-12-11T01:34:07;101032.78;;;-0.10;100.00
74103;BME280;62853;46.166;3.640;2022-12-11T01:36:33;101030.19;;;-0.10;100.00
74103;BME280;62853;46.166;3.640;2022-12-11T01:38:58;101031.88;;;-0.07;100.00
74103;BME280;62853;46.166;3.640;2022-12-11T01:41:23;101033.59;;;-0.06;100.00
74103;BME280;62853;46.166;3.640;2022-12-11T01:46:23;101031.00;;;-0.03;100.00
74103;BME280;62853;46.166;3.640;2022-12-11T01:48:49;101028.41;;;-0.02;100.00
74103;BME280;62853;46.166;3.640;2022-12-11T01:51:14;101027.50;;;-0.01;100.00
74103;BME280;62853;46.166;3.640;2022-12-11T01:53:41;101020.59;;;0.02;100.00
74103;BME280;62853;46.166;3.640;2022-12-11T01:56:07;101016.28;;;0.02;100.00
74103;BME280;62853;46.166;3.640;2022-12-11T01:58:33;101018.88;;;0.02;100.00
74103;BME280;62853;46.166;3.640;2022-12-11T02:01:00;101017.13;;;0.04;100.00
74103;BME280;62853;46.166;3.640;2022-12-11T02:03:26;101022.28;;;0.06;100.00
74103;BME280;62853;46.166;3.640;2022-12-11T02:05:52;101021.41;;;0.07;100.00
74103;BME280;62853;46.166;3.640;2022-12-11T02:08:17;101018.81;;;0.07;100.00
74103;BME280;62853;46.166;3.640;2022-12-11T02:10:47;101025.75;;;0.05;100.00
74103;BME280;62853;46.166;3.640;2022-12-11T02:13:15;101027.47;;;0.06;100.00
74103;BME280;62853;46.166;3.640;2022-12-11T02:15:50;101023.16;;;0.05;100.00
74103;BME280;62853;46.166;3.640;2022-12-11T02:20:53;101022.28;;;0.06;100.00
74103;BME280;62853;46.166;3.640;2022-12-11T02:26:18;101018.78;;;0.10;100.00
74103;BME280;62853;46.166;3.640;2022-12-11T02:28:57;101014.50;;;0.07;100.00
74103;BME280;62853;46.166;3.640;2022-12-11T02:36:32;101013.59;;;0.13;100.00
74103;BME280;62853;46.166;3.640;2022-12-11T02:39:00;101011.00;;;0.13;100.00
74103;BME280;62853;46.166;3.640;2022-12-11T02:41:26;101011.00;;;0.14;100.00
74103;BME280;62853;46.166;3.640;2022-12-11T02:43:52;101020.47;;;0.17;100.00
74103;BME280;62853;46.166;3.640;2022-12-11T02:46:20;101014.41;;;0.16;100.00
74103;BME280;62853;46.166;3.640;2022-12-11T02:48:46;101009.25;;;0.16;100.00
74103;BME280;62853;46.166;3.640;2022-12-11T02:51:14;101010.97;;;0.17;100.00
74103;BME280;62853;46.166;3.640;2022-12-11T02:53:40;101005.78;;;0.17;100.00
74103;BME280;62853;46.166;3.640;2022-12-11T02:56:15;101006.63;;;0.18;100.00
74103;BME280;62853;46.166;3.640;2022-12-11T02:58:49;101011.84;;;0.15;100.00
74103;BME280;62853;46.166;3.640;2022-12-11T03:01:17;101009.25;;;0.16;100.00
74103;BME280;62853;46.166;3.640;2022-12-11T03:03:43;101011.81;;;0.18;100.00
74103;BME280;62853;46.166;3.640;2022-12-11T03:06:09;100999.72;;;0.18;100.00
74103;BME280;62853;46.166;3.640;2022-12-11T03:08:37;100997.09;;;0.22;100.00
74103;BME280;62853;46.166;3.640;2022-12-11T03:11:03;100995.38;;;0.22;100.00
74103;BME280;62853;46.166;3.640;2022-12-11T03:13:28;101002.28;;;0.23;100.00
74103;BME280;62853;46.166;3.640;2022-12-11T03:16:16;101001.41;;;0.26;100.00
74103;BME280;62853;46.166;3.640;2022-12-11T03:18:42;100993.63;;;0.27;100.00
74103;BME280;62853;46.166;3.640;2022-12-11T03:21:14;100989.31;;;0.23;100.00
74103;BME280;62853;46.166;3.640;2022-12-11T03:23:53;100992.75;;;0.25;100.00
74103;BME280;62853;46.166;3.640;2022-12-11T03:26:21;100995.31;;;0.27;100.00
74103;BME280;62853;46.166;3.640;2022-12-11T03:28:54;100994.44;;;0.29;100.00
74103;BME280;62853;46.166;3.640;2022-12-11T03:31:24;100989.28;;;0.29;100.00
74103;BME280;62853;46.166;3.640;2022-12-11T03:33:52;100990.09;;;0.31;100.00
74103;BME280;62853;46.166;3.640;2022-12-11T03:36:19;100994.44;;;0.31;100.00
74103;BME280;62853;46.166;3.640;2022-12-11T03:41:13;100982.34;;;0.28;100.00
74103;BME280;62853;46.166;3.640;2022-12-11T03:43:40;100982.38;;;0.27;100.00
74103;BME280;62853;46.166;3.640;2022-12-11T03:46:05;100981.50;;;0.28;100.00
74103;BME280;62853;46.166;3.640;2022-12-11T03:48:33;100983.25;;;0.26;100.00
74103;BME280;62853;46.166;3.640;2022-12-11T03:50:59;100971.16;;;0.26;100.00
74103;BME280;62853;46.166;3.640;2022-12-11T03:53:26;100964.22;;;0.28;100.00
74103;BME280;62853;46.166;3.640;2022-12-11T03:55:51;100959.94;;;0.29;100.00
74103;BME280;62853;46.166;3.640;2022-12-11T03:58:18;100963.38;;;0.28;100.00
74103;BME280;62853;46.166;3.640;2022-12-11T04:00:43;100959.94;;;0.27;100.00
74103;BME280;62853;46.166;3.640;2022-12-11T04:03:08;100957.38;;;0.24;100.00
74103;BME280;62853;46.166;3.640;2022-12-11T04:05:43;100962.56;;;0.21;100.00
74103;BME280;62853;46.166;3.640;2022-12-11T04:08:09;100957.41;;;0.20;100.00
74103;BME280;62853;46.166;3.640;2022-12-11T04:10:35;100966.94;;;0.16;100.00
74103;BME280;62853;46.166;3.640;2022-12-11T04:13:00;100966.97;;;0.14;100.00
74103;BME280;62853;46.166;3.640;2022-12-11T04:15:25;100968.72;;;0.11;100.00
74103;BME280;62853;46.166;3.640;2022-12-11T04:17:50;100965.28;;;0.12;100.00
74103;BME280;62853;46.166;3.640;2022-12-11T04:20:34;100966.13;;;0.11;100.00
74103;BME280;62853;46.166;3.640;2022-12-11T04:23:18;100972.19;;;0.10;100.00
74103;BME280;62853;46.166;3.640;2022-12-11T04:26:21;100966.16;;;0.06;100.00
74103;BME280;62853;46.166;3.640;2022-12-11T04:28:46;100967.91;;;0.07;100.00
74103;BME280;62853;46.166;3.640;2022-12-11T04:31:13;100960.97;;;0.08;100.00
74103;BME280;62853;46.166;3.640;2022-12-11T04:33:39;100964.41;;;0.08;100.00
74103;BME280;62853;46.166;3.640;2022-12-11T04:36:05;100957.56;;;0.04;100.00
74103;BME280;62853;46.166;3.640;2022-12-11T04:38:31;100967.06;;;0.05;100.00
74103;BME280;62853;46.166;3.640;2022-12-11T04:40:57;100970.50;;;0.04;100.00
74103;BME280;62853;46.166;3.640;2022-12-11T04:43:22;100966.19;;;0.03;100.00
74103;BME280;62853;46.166;3.640;2022-12-11T04:45:47;100968.78;;;0.03;100.00
74103;BME280;62853;46.166;3.640;2022-12-11T04:48:12;100966.19;;;0.03;100.00
74103;BME280;62853;46.166;3.640;2022-12-11T04:50:38;100955.00;;;0.03;100.00
74103;BME280;62853;46.166;3.640;2022-12-11T04:53:03;100963.59;;;0.03;100.00
74103;BME280;62853;46.166;3.640;2022-12-11T04:55:28;100952.38;;;0.04;100.00
74103;BME280;62853;46.166;3.640;2022-12-11T04:57:53;100956.72;;;0.04;100.00
74103;BME280;62853;46.166;3.640;2022-12-11T05:00:19;100955.81;;;0.05;100.00
74103;BME280;62853;46.166;3.640;2022-12-11T05:02:44;100953.25;;;0.03;100.00
74103;BME280;62853;46.166;3.640;2022-12-11T05:05:10;100949.81;;;0.03;100.00
74103;BME280;62853;46.166;3.640;2022-12-11T05:07:35;100941.09;;;0.10;100.00
74103;BME280;62853;46.166;3.640;2022-12-11T05:10:01;100936.00;;;0.02;100.00
74103;BME280;62853;46.166;3.640;2022-12-11T05:12:27;100940.31;;;0.02;100.00
74103;BME280;62853;46.166;3.640;2022-12-11T05:14:52;100933.44;;;0.01;100.00
74103;BME280;62853;46.166;3.640;2022-12-11T05:17:18;100935.13;;;0.02;100.00
74103;BME280;62853;46.166;3.640;2022-12-11T05:19:45;100933.44;;;0.01;100.00
74103;BME280;62853;46.166;3.640;2022-12-11T05:22:11;100924.84;;;-0.02;100.00
74103;BME280;62853;46.166;3.640;2022-12-11T05:24:36;100923.09;;;-0.01;100.00
74103;BME280;62853;46.166;3.640;2022-12-11T05:27:01;100933.44;;;-0.01;100.00
74103;BME280;62853;46.166;3.640;2022-12-11T05:29:26;100933.47;;;-0.03;100.00
74103;BME280;62853;46.166;3.640;2022-12-11T05:31:52;100923.09;;;-0.03;100.00
74103;BME280;62853;46.166;3.640;2022-12-11T05:34:17;100924.84;;;-0.02;100.00
74103;BME280;62853;46.166;3.640;2022-12-11T05:36:42;100923.09;;;0.01;100.00
74103;BME280;62853;46.166;3.640;2022-12-11T05:39:08;100919.66;;;-0.02;100.00
74103;BME280;62853;46.166;3.640;2022-12-11T05:41:35;100924.81;;;0.00;100.00
74103;BME280;62853;46.166;3.640;2022-12-11T05:44:00;100926.50;;;0.01;100.00
74103;BME280;62853;46.166;3.640;2022-12-11T05:46:26;100929.09;;;0.03;100.00
74103;BME280;62853;46.166;3.640;2022-12-11T05:48:53;100933.41;;;0.05;100.00
74103;BME280;62853;46.166;3.640;2022-12-11T05:51:19;100927.38;;;0.02;100.00
74103;BME280;62853;46.166;3.640;2022-12-11T05:53:45;100928.22;;;0.04;100.00
74103;BME280;62853;46.166;3.640;2022-12-11T05:56:14;100939.44;;;0.06;100.00
74103;BME280;62853;46.166;3.640;2022-12-11T05:58:40;100933.41;;;0.05;100.00
74103;BME280;62853;46.166;3.640;2022-12-11T06:01:10;100937.69;;;0.08;100.00
74103;BME280;62853;46.166;3.640;2022-12-11T06:03:36;100946.28;;;0.08;100.00
74103;BME280;62853;46.166;3.640;2022-12-11T06:06:02;100940.25;;;0.09;100.00
74103;BME280;62853;46.166;3.640;2022-12-11T06:08:28;100941.97;;;0.10;100.00
74103;BME280;62853;46.166;3.640;2022-12-11T06:10:53;100941.09;;;0.11;100.00
74103;BME280;62853;46.166;3.640;2022-12-11T06:13:18;100940.22;;;0.12;100.00
74103;BME280;62853;46.166;3.640;2022-12-11T06:15:44;100937.63;;;0.12;100.00
74103;BME280;62853;46.166;3.640;2022-12-11T06:18:09;100939.34;;;0.13;100.00
74103;BME280;62853;46.166;3.640;2022-12-11T06:20:34;100936.72;;;0.15;100.00
74103;BME280;62853;46.166;3.640;2022-12-11T06:23:00;100940.19;;;0.15;100.00
74103;BME280;62853;46.166;3.640;2022-12-11T06:25:26;100938.44;;;0.17;100.00
74103;BME280;62853;46.166;3.640;2022-12-11T06:27:51;100935.88;;;0.16;100.00
74103;BME280;62853;46.166;3.640;2022-12-11T06:30:16;100931.63;;;0.10;100.00
74103;BME280;62853;46.166;3.640;2022-12-11T06:32:42;100937.66;;;0.11;100.00
74103;BME280;62853;46.166;3.640;2022-12-11T06:35:07;100931.59;;;0.12;100.00
74103;BME280;62853;46.166;3.640;2022-12-11T06:37:35;100937.63;;;0.12;100.00
74103;BME280;62853;46.166;3.640;2022-12-11T06:40:01;100935.91;;;0.13;100.00
74103;BME280;62853;46.166;3.640;2022-12-11T06:42:28;100937.63;;;0.14;100.00
74103;BME280;62853;46.166;3.640;2022-12-11T06:44:53;100929.84;;;0.14;100.00
74103;BME280;62853;46.166;3.640;2022-12-11T06:47:21;100922.09;;;0.12;100.00
74103;BME280;62853;46.166;3.640;2022-12-11T06:49:46;100921.25;;;0.12;100.00
74103;BME280;62853;46.166;3.640;2022-12-11T06:52:12;100919.50;;;0.12;100.00
74103;BME280;62853;46.166;3.640;2022-12-11T06:54:37;100924.72;;;0.09;100.00
74103;BME280;62853;46.166;3.640;2022-12-11T06:57:02;100929.88;;;0.11;100.00
74103;BME280;62853;46.166;3.640;2022-12-11T06:59:28;100928.13;;;0.14;100.00
74103;BME280;62853;46.166;3.640;2022-12-11T07:01:53;100931.56;;;0.15;100.00
74103;BME280;62853;46.166;3.640;2022-12-11T07:04:18;100935.03;;;0.15;100.00
74103;BME280;62853;46.166;3.640;2022-12-11T07:06:43;100936.78;;;0.12;100.00
74103;BME280;62853;46.166;3.640;2022-12-11T07:09:09;100941.06;;;0.14;100.00
74103;BME280;62853;46.166;3.640;2022-12-11T07:11:34;100944.56;;;0.10;100.00
74103;BME280;62853;46.166;3.640;2022-12-11T07:13:59;100940.25;;;0.09;100.00
74103;BME280;62853;46.166;3.640;2022-12-11T07:16:25;100942.81;;;0.11;100.00
74103;BME280;62853;46.166;3.640;2022-12-11T07:18:50;100947.16;;;0.12;100.00
74103;BME280;62853;46.166;3.640;2022-12-11T07:21:16;100942.00;;;0.09;100.00
74103;BME280;62853;46.166;3.640;2022-12-11T07:23:42;100950.59;;;0.09;100.00
74103;BME280;62853;46.166;3.640;2022-12-11T07:26:08;100946.34;;;0.05;100.00
74103;BME280;62853;46.166;3.640;2022-12-11T07:28:34;100956.66;;;0.08;100.00
74103;BME280;62853;46.166;3.640;2022-12-11T07:31:10;100951.47;;;0.08;100.00
74103;BME280;62853;46.166;3.640;2022-12-11T07:33:36;100959.22;;;0.11;100.00
74103;BME280;62853;46.166;3.640;2022-12-11T07:36:02;100955.78;;;0.09;100.00
74103;BME280;62853;46.166;3.640;2022-12-11T07:38:28;100960.13;;;0.07;100.00
74103;BME280;62853;46.166;3.640;2022-12-11T07:40:53;100962.72;;;0.09;100.00
74103;BME280;62853;46.166;3.640;2022-12-11T07:43:18;100957.53;;;0.10;100.00
74103;BME280;62853;46.166;3.640;2022-12-11T07:45:44;100961.81;;;0.11;100.00
74103;BME280;62853;46.166;3.640;2022-12-11T07:48:09;100960.16;;;0.06;100.00
74103;BME280;62853;46.166;3.640;2022-12-11T07:50:34;100956.66;;;0.07;100.00
74103;BME280;62853;46.166;3.640;2022-12-11T07:53:00;100956.66;;;0.07;100.00
74103;BME280;62853;46.166;3.640;2022-12-11T07:55:25;100953.19;;;0.09;100.00
74103;BME280;62853;46.166;3.640;2022-12-11T07:57:50;100957.53;;;0.10;100.00
74103;BME280;62853;46.166;3.640;2022-12-11T08:00:15;100956.63;;;0.11;100.00
74103;BME280;62853;46.166;3.640;2022-12-11T08:02:41;100960.06;;;0.13;100.00
74103;BME280;62853;46.166;3.640;2022-12-11T08:05:06;100949.69;;;0.13;100.00
74103;BME280;62853;46.166;3.640;2022-12-11T08:07:35;100951.41;;;0.14;100.00
74103;BME280;62853;46.166;3.640;2022-12-11T08:10:00;100949.69;;;0.15;100.00
74103;BME280;62853;46.166;3.640;2022-12-11T08:12:26;100948.81;;;0.16;100.00
74103;BME280;62853;46.166;3.640;2022-12-11T08:14:51;100945.41;;;0.14;100.00
74103;BME280;62853;46.166;3.640;2022-12-11T08:17:16;100948.00;;;0.11;100.00
74103;BME280;62853;46.166;3.640;2022-12-11T08:19:41;100944.50;;;0.15;100.00
74103;BME280;62853;46.166;3.640;2022-12-11T08:22:06;100945.41;;;0.14;100.00
74103;BME280;62853;46.166;3.640;2022-12-11T08:24:32;100953.13;;;0.17;100.00
74103;BME280;62853;46.166;3.640;2022-12-11T08:26:57;100953.97;;;0.19;100.00
74103;BME280;62853;46.166;3.640;2022-12-11T08:29:22;100950.50;;;0.18;100.00
74103;BME280;62853;46.166;3.640;2022-12-11T08:31:48;100961.75;;;0.16;100.00
74103;BME280;62853;46.166;3.640;2022-12-11T08:34:14;100954.84;;;0.18;100.00
74103;BME280;62853;46.166;3.640;2022-12-11T08:36:39;100953.97;;;0.19;100.00
74103;BME280;62853;46.166;3.640;2022-12-11T08:39:04;100950.50;;;0.20;100.00
74103;BME280;62853;46.166;3.640;2022-12-11T08:41:30;100955.66;;;0.23;100.00
74103;BME280;62853;46.166;3.640;2022-12-11T08:43:56;100957.34;;;0.27;100.00
74103;BME280;62853;46.166;3.640;2022-12-11T08:46:22;100953.84;;;0.31;100.00
74103;BME280;62853;46.166;3.640;2022-12-11T08:48:48;100947.72;;;0.37;100.00
74103;BME280;62853;46.166;3.640;2022-12-11T08:51:14;100956.28;;;0.42;100.00
74103;BME280;62853;46.166;3.640;2022-12-11T08:53:40;100953.69;;;0.45;100.00
74103;BME280;62853;46.166;3.640;2022-12-11T08:56:07;100947.66;;;0.45;100.00
74103;BME280;62853;46.166;3.640;2022-12-11T08:58:32;100947.63;;;0.48;100.00
74103;BME280;62853;46.166;3.640;2022-12-11T09:00:57;100957.19;;;0.43;100.00
74103;BME280;62853;46.166;3.640;2022-12-11T09:03:23;100953.81;;;0.34;100.00
74103;BME280;62853;46.166;3.640;2022-12-11T09:05:49;100953.78;;;0.36;100.00
74103;BME280;62853;46.166;3.640;2022-12-11T09:08:14;100947.69;;;0.42;100.00
74103;BME280;62853;46.166;3.640;2022-12-11T09:10:39;100952.91;;;0.37;100.00
74103;BME280;62853;46.166;3.640;2022-12-11T09:13:05;100945.06;;;0.43;100.00
74103;BME280;62853;46.166;3.640;2022-12-11T09:15:30;100943.28;;;0.47;100.00
74103;BME280;62853;46.166;3.640;2022-12-11T09:17:55;100944.13;;;0.49;100.00
74103;BME280;62853;46.166;3.640;2022-12-11T09:20:20;100939.81;;;0.52;100.00
74103;BME280;62853;46.166;3.640;2022-12-11T09:22:45;100950.06;;;0.60;100.00
74103;BME280;62853;46.166;3.640;2022-12-11T09:25:11;100941.38;;;0.64;100.00
74103;BME280;62853;46.166;3.640;2022-12-11T09:27:36;100937.09;;;0.60;100.00
74103;BME280;62853;46.166;3.640;2022-12-11T09:30:01;100937.13;;;0.59;100.00
74103;BME280;62853;46.166;3.640;2022-12-11T09:32:26;100934.56;;;0.54;100.00
74103;BME280;62853;46.166;3.640;2022-12-11T09:34:52;100935.44;;;0.54;100.00
74103;BME280;62853;46.166;3.640;2022-12-11T09:37:17;100929.38;;;0.55;100.00
74103;BME280;62853;46.166;3.640;2022-12-11T09:39:42;100936.28;;;0.57;100.00
74103;BME280;62853;46.166;3.640;2022-12-11T09:44:33;100933.72;;;0.53;100.00
74103;BME280;62853;46.166;3.640;2022-12-11T09:47:02;100936.28;;;0.55;100.00
74103;BME280;62853;46.166;3.640;2022-12-11T09:49:32;100934.63;;;0.52;100.00
74103;BME280;62853;46.166;3.640;2022-12-11T09:52:19;100930.28;;;0.51;100.00
74103;BME280;62853;46.166;3.640;2022-12-11T09:54:58;100942.34;;;0.54;100.00
74103;BME280;62853;46.166;3.640;2022-12-11T10:00:23;100931.97;;;0.55;100.00
74103;BME280;62853;46.166;3.640;2022-12-11T10:07:59;100920.50;;;0.73;100.00
74103;BME280;62853;46.166;3.640;2022-12-11T10:13:20;100922.06;;;0.87;100.00
74103;BME280;62853;46.166;3.640;2022-12-11T10:18:17;100923.81;;;0.88;100.00
74103;BME280;62853;46.166;3.640;2022-12-11T10:20:46;100925.66;;;0.78;100.00
74103;BME280;62853;46.166;3.640;2022-12-11T10:23:17;100929.91;;;0.82;100.00
74103;BME280;62853;46.166;3.640;2022-12-11T10:25:45;100925.53;;;0.84;100.00
74103;BME280;62853;46.166;3.640;2022-12-11T10:28:14;100929.00;;;0.88;100.00
74103;BME280;62853;46.166;3.640;2022-12-11T10:31:01;100919.44;;;0.90;100.00
74103;BME280;62853;46.166;3.640;2022-12-11T10:35:51;100924.63;;;0.90;100.00
74103;BME280;62853;46.166;3.640;2022-12-11T10:38:22;100928.91;;;0.92;100.00
74103;BME280;62853;46.166;3.640;2022-12-11T10:40:50;100918.50;;;0.94;100.00
74103;BME280;62853;46.166;3.640;2022-12-11T10:43:15;100913.28;;;0.97;100.00
74103;BME280;62853;46.166;3.640;2022-12-11T10:45:49;100918.34;;;1.06;100.00
74103;BME280;62853;46.166;3.640;2022-12-11T10:48:14;100914.75;;;1.17;100.00
74103;BME280;62853;46.166;3.640;2022-12-11T10:50:39;100925.94;;;1.20;100.00
74103;BME280;62853;46.166;3.640;2022-12-11T10:53:16;100912.91;;;1.25;100.00
74103;BME280;62853;46.166;3.640;2022-12-11T10:55:43;100917.97;;;1.31;100.00
74103;BME280;62853;46.166;3.640;2022-12-11T10:58:15;100903.28;;;1.32;100.00
74103;BME280;62853;46.166;3.640;2022-12-11T11:00:41;100910.25;;;1.26;100.00
74103;BME280;62853;46.166;3.640;2022-12-11T11:03:19;100913.00;;;1.17;100.00
74103;BME280;62853;46.166;3.640;2022-12-11T11:05:45;100910.31;;;1.23;100.00
74103;BME280;62853;46.166;3.640;2022-12-11T11:08:15;100898.81;;;1.40;100.00
74103;BME280;62853;46.166;3.640;2022-12-11T11:10:48;100899.31;;;1.62;100.00
74103;BME280;62853;46.166;3.640;2022-12-11T11:13:14;100896.38;;;1.82;100.00
74103;BME280;62853;46.166;3.640;2022-12-11T11:15:39;100893.56;;;1.96;100.00
74103;BME280;62853;46.166;3.640;2022-12-11T11:18:26;100884.75;;;2.03;100.00
74103;BME280;62853;46.166;3.640;2022-12-11T11:20:51;100885.63;;;2.02;100.00
74103;BME280;62853;46.166;3.640;2022-12-11T11:23:16;100879.50;;;2.06;100.00
74103;BME280;62853;46.166;3.640;2022-12-11T11:25:56;100885.53;;;2.08;100.00
74103;BME280;62853;46.166;3.640;2022-12-11T11:28:46;100885.50;;;2.10;100.00
74103;BME280;62853;46.166;3.640;2022-12-11T11:31:09;100882.00;;;2.11;100.00
74103;BME280;62853;46.166;3.640;2022-12-11T11:33:35;100887.28;;;2.06;100.00
74103;BME280;62853;46.166;3.640;2022-12-11T11:36:05;100867.50;;;1.99;100.00
74103;BME280;62853;46.166;3.640;2022-12-11T11:43:35;100876.13;;;2.02;100.00
74103;BME280;62853;46.166;3.640;2022-12-11T11:48:49;100881.78;;;2.23;100.00
74103;BME280;62853;46.166;3.640;2022-12-11T11:53:46;100873.00;;;2.27;100.00
74103;BME280;62853;46.166;3.640;2022-12-11T11:56:24;100870.59;;;2.19;100.00
74103;BME280;62853;46.166;3.640;2022-12-11T11:58:55;100872.69;;;1.99;100.00
74103;BME280;62853;46.166;3.640;2022-12-11T12:01:21;100873.47;;;2.04;100.00
74103;BME280;62853;46.166;3.640;2022-12-11T12:03:47;100869.88;;;2.11;100.00
74103;BME280;62853;46.166;3.640;2022-12-11T12:08:47;100863.63;;;2.21;100.00
74103;BME280;62853;46.166;3.640;2022-12-11T12:11:52;100852.16;;;2.30;100.00
74103;BME280;62853;46.166;3.640;2022-12-11T12:14:12;100849.31;;;2.42;100.00
74103;BME280;62853;46.166;3.640;2022-12-11T12:21:38;100861.50;;;2.40;100.00
74103;BME280;62853;46.166;3.640;2022-12-11T12:26:35;100851.47;;;2.22;100.00
74103;BME280;62853;46.166;3.640;2022-12-11T12:47:14;100847.75;;;2.34;100.00
74103;BME280;62853;46.166;3.640;2022-12-11T12:49:42;100846.94;;;2.32;100.00
74103;BME280;62853;46.166;3.640;2022-12-11T12:52:29;100838.44;;;2.23;100.00
74103;BME280;62853;46.166;3.640;2022-12-11T12:54:55;100847.31;;;2.13;100.00
74103;BME280;62853;46.166;3.640;2022-12-11T13:00:31;100847.41;;;2.09;100.00
74103;BME280;62853;46.166;3.640;2022-12-11T13:02:59;100847.47;;;2.04;100.00
74103;BME280;62853;46.166;3.640;2022-12-11T13:05:27;100843.28;;;1.98;100.00
74103;BME280;62853;46.166;3.640;2022-12-11T13:07:57;100844.19;;;1.96;100.00
74103;BME280;62853;46.166;3.640;2022-12-11T13:10:24;100843.59;;;1.81;100.00
74103;BME280;62853;46.166;3.640;2022-12-11T13:12:50;100836.84;;;1.71;100.00
74103;BME280;62853;46.166;3.640;2022-12-11T13:15:22;100834.31;;;1.68;100.00
74103;BME280;62853;46.166;3.640;2022-12-11T13:17:48;100834.41;;;1.62;100.00
74103;BME280;62853;46.166;3.640;2022-12-11T13:20:15;100838.88;;;1.55;100.00
74103;BME280;62853;46.166;3.640;2022-12-11T13:27:51;100845.84;;;1.52;100.00
74103;BME280;62853;46.166;3.640;2022-12-11T13:32:42;100843.16;;;1.58;100.00
74103;BME280;62853;46.166;3.640;2022-12-11T13:35:14;100844.91;;;1.56;100.00
74103;BME280;62853;46.166;3.640;2022-12-11T13:37:40;100837.22;;;1.49;100.00
74103;BME280;62853;46.166;3.640;2022-12-11T13:42:39;100839.75;;;1.54;100.00
74103;BME280;62853;46.166;3.640;2022-12-11T13:45:16;100854.53;;;1.51;100.00
74103;BME280;62853;46.166;3.640;2022-12-11T13:47:42;100845.97;;;1.45;100.00
74103;BME280;62853;46.166;3.640;2022-12-11T13:50:14;100857.38;;;1.35;100.00
74103;BME280;62853;46.166;3.640;2022-12-11T13:52:51;100862.63;;;1.30;100.00
74103;BME280;62853;46.166;3.640;2022-12-11T13:55:20;100857.56;;;1.23;100.00
74103;BME280;62853;46.166;3.640;2022-12-11T13:57:46;100861.97;;;1.18;100.00
74103;BME280;62853;46.166;3.640;2022-12-11T14:00:18;100860.28;;;1.17;100.00
74103;BME280;62853;46.166;3.640;2022-12-11T14:02:43;100861.13;;;1.16;100.00
74103;BME280;62853;46.166;3.640;2022-12-11T14:05:09;100860.31;;;1.14;100.00
74103;BME280;62853;46.166;3.640;2022-12-11T14:07:48;100861.22;;;1.09;100.00
74103;BME280;62853;46.166;3.640;2022-12-11T14:10:15;100864.69;;;1.10;100.00
74103;BME280;62853;46.166;3.640;2022-12-11T14:12:42;100862.13;;;1.08;100.00
74103;BME280;62853;46.166;3.640;2022-12-11T14:15:12;100862.09;;;1.10;100.00